sensor_id;sensor_type;location;lat;lon;timestamp;pressure;altitude;pressure_sealevel;temperature;humidity
54556;BME280;57291;37.520;15.106;2023-08-01T00:00:44;100642.34;;;26.82;69.07
54556;BME280;57291;37.520;15.106;2023-08-01T00:03:12;100643.94;;;26.80;69.25
54556;BME280;57291;37.520;15.106;2023-08-01T00:05:40;100641.97;;;26.77;69.85
54556;BME280;57291;37.520;15.106;2023-08-01T00:08:27;100641.56;;;26.78;69.68
54556;BME280;57291;37.520;15.106;2023-08-01T00:10:55;100639.97;;;26.77;70.08
54556;BME280;57291;37.520;15.106;2023-08-01T00:13:22;100642.75;;;26.77;70.19
54556;BME280;57291;37.520;15.106;2023-08-01T00:15:49;100639.56;;;26.79;69.54
54556;BME280;57291;37.520;15.106;2023-08-01T00:18:32;100630.00;;;26.80;69.35
54556;BME280;57291;37.520;15.106;2023-08-01T00:21:00;100637.94;;;26.81;69.68
54556;BME280;57291;37.520;15.106;2023-08-01T00:23:27;100636.38;;;26.80;69.34
54556;BME280;57291;37.520;15.106;2023-08-01T00:25:54;100632.78;;;26.80;69.43
54556;BME280;57291;37.520;15.106;2023-08-01T00:28:22;100632.00;;;26.79;69.17
54556;BME280;57291;37.520;15.106;2023-08-01T00:30:50;100627.25;;;26.76;69.33
54556;BME280;57291;37.520;15.106;2023-08-01T00:33:17;100629.66;;;26.71;69.17
54556;BME280;57291;37.520;15.106;2023-08-01T00:35:44;100628.84;;;26.74;68.71
54556;BME280;57291;37.520;15.106;2023-08-01T00:38:11;100629.63;;;26.74;68.53
54556;BME280;57291;37.520;15.106;2023-08-01T00:40:38;100621.31;;;26.71;68.50
54556;BME280;57291;37.520;15.106;2023-08-01T00:43:05;100624.09;;;26.67;68.92
54556;BME280;57291;37.520;15.106;2023-08-01T00:45:32;100623.72;;;26.65;68.43
54556;BME280;57291;37.520;15.106;2023-08-01T00:47:59;100613.81;;;26.60;68.89
54556;BME280;57291;37.520;15.106;2023-08-01T00:50:27;100613.41;;;26.58;68.43
54556;BME280;57291;37.520;15.106;2023-08-01T00:52:54;100612.22;;;26.59;68.58
54556;BME280;57291;37.520;15.106;2023-08-01T00:55:24;100606.22;;;26.61;68.54
54556;BME280;57291;37.520;15.106;2023-08-01T00:57:53;100598.66;;;26.61;68.11
54556;BME280;57291;37.520;15.106;2023-08-01T01:00:20;100593.06;;;26.65;67.53
54556;BME280;57291;37.520;15.106;2023-08-01T01:02:47;100593.44;;;26.67;67.50
54556;BME280;57291;37.520;15.106;2023-08-01T01:05:15;100594.22;;;26.71;67.36
54556;BME280;57291;37.520;15.106;2023-08-01T01:07:43;100592.28;;;26.64;67.71
54556;BME280;57291;37.520;15.106;2023-08-01T01:10:11;100598.28;;;26.59;67.59
54556;BME280;57291;37.520;15.106;2023-08-01T01:12:38;100599.13;;;26.53;68.21
54556;BME280;57291;37.520;15.106;2023-08-01T01:15:06;100595.16;;;26.47;68.22
54556;BME280;57291;37.520;15.106;2023-08-01T01:17:33;100599.16;;;26.46;68.11
54556;BME280;57291;37.520;15.106;2023-08-01T01:20:00;100590.00;;;26.41;68.16
54556;BME280;57291;37.520;15.106;2023-08-01T01:22:27;100594.00;;;26.40;67.86
54556;BME280;57291;37.520;15.106;2023-08-01T01:24:56;100593.19;;;26.40;67.97
54556;BME280;57291;37.520;15.106;2023-08-01T01:27:24;100594.00;;;26.40;67.79
54556;BME280;57291;37.520;15.106;2023-08-01T01:29:51;100591.59;;;26.42;67.74
54556;BME280;57291;37.520;15.106;2023-08-01T01:32:20;100588.00;;;26.42;67.95
54556;BME280;57291;37.520;15.106;2023-08-01T01:34:47;100589.63;;;26.39;67.77
54556;BME280;57291;37.520;15.106;2023-08-01T01:37:14;100589.25;;;26.34;67.85
54556;BME280;57291;37.520;15.106;2023-08-01T01:39:41;100585.72;;;26.26;68.28
54556;BME280;57291;37.520;15.106;2023-08-01T01:42:09;100590.50;;;26.18;68.54
54556;BME280;57291;37.520;15.106;2023-08-01T01:44:36;100592.91;;;26.20;68.93
54556;BME280;57291;37.520;15.106;2023-08-01T01:47:03;100589.75;;;26.14;68.74
54556;BME280;57291;37.520;15.106;2023-08-01T01:49:30;100592.53;;;26.11;68.77
54556;BME280;57291;37.520;15.106;2023-08-01T01:51:57;100590.16;;;26.09;69.37
54556;BME280;57291;37.520;15.106;2023-08-01T01:54:25;100593.75;;;26.03;69.79
54556;BME280;57291;37.520;15.106;2023-08-01T01:56:53;100596.19;;;25.97;70.37
54556;BME280;57291;37.520;15.106;2023-08-01T01:59:20;100589.84;;;25.93;70.57
54556;BME280;57291;37.520;15.106;2023-08-01T02:01:47;100595.03;;;25.87;71.01
54556;BME280;57291;37.520;15.106;2023-08-01T02:04:14;100593.03;;;25.77;68.96
54556;BME280;57291;37.520;15.106;2023-08-01T02:06:42;100592.66;;;25.71;66.94
54556;BME280;57291;37.520;15.106;2023-08-01T02:09:09;100589.09;;;25.67;66.03
54556;BME280;57291;37.520;15.106;2023-08-01T02:11:36;100599.81;;;25.65;64.15
54556;BME280;57291;37.520;15.106;2023-08-01T02:14:03;100595.84;;;25.63;63.25
54556;BME280;57291;37.520;15.106;2023-08-01T02:16:30;100593.06;;;25.66;63.01
54556;BME280;57291;37.520;15.106;2023-08-01T02:18:57;100589.91;;;25.64;62.29
54556;BME280;57291;37.520;15.106;2023-08-01T02:21:24;100593.47;;;25.65;62.47
54556;BME280;57291;37.520;15.106;2023-08-01T02:23:51;100586.72;;;25.62;61.88
54556;BME280;57291;37.520;15.106;2023-08-01T02:26:18;100576.38;;;25.59;62.30
54556;BME280;57291;37.520;15.106;2023-08-01T02:28:46;100587.53;;;25.56;62.13
54556;BME280;57291;37.520;15.106;2023-08-01T02:31:13;100587.16;;;25.54;62.19
54556;BME280;57291;37.520;15.106;2023-08-01T02:33:40;100582.75;;;25.53;62.44
54556;BME280;57291;37.520;15.106;2023-08-01T02:36:07;100585.94;;;25.51;62.11
54556;BME280;57291;37.520;15.106;2023-08-01T02:38:34;100580.78;;;25.49;62.45
54556;BME280;57291;37.520;15.106;2023-08-01T02:41:02;100585.16;;;25.50;62.56
54556;BME280;57291;37.520;15.106;2023-08-01T02:43:29;100576.41;;;25.48;62.98
54556;BME280;57291;37.520;15.106;2023-08-01T02:45:56;100579.97;;;25.49;63.20
54556;BME280;57291;37.520;15.106;2023-08-01T02:48:23;100575.22;;;25.49;63.48
54556;BME280;57291;37.520;15.106;2023-08-01T02:50:50;100576.41;;;25.52;63.13
54556;BME280;57291;37.520;15.106;2023-08-01T02:53:17;100576.81;;;25.54;62.96
54556;BME280;57291;37.520;15.106;2023-08-01T02:55:44;100580.38;;;25.51;63.17
54556;BME280;57291;37.520;15.106;2023-08-01T02:58:14;100579.19;;;25.48;62.83
54556;BME280;57291;37.520;15.106;2023-08-01T03:00:41;100580.00;;;25.45;62.92
54556;BME280;57291;37.520;15.106;2023-08-01T03:03:08;100583.59;;;25.39;62.90
54556;BME280;57291;37.520;15.106;2023-08-01T03:05:36;100580.81;;;25.35;63.14
54556;BME280;57291;37.520;15.106;2023-08-01T03:08:04;100581.59;;;25.32;63.08
54556;BME280;57291;37.520;15.106;2023-08-01T03:10:31;100572.06;;;25.33;62.99
54556;BME280;57291;37.520;15.106;2023-08-01T03:13:03;100586.34;;;25.42;62.69
54556;BME280;57291;37.520;15.106;2023-08-01T03:15:31;100586.75;;;25.44;62.28
54556;BME280;57291;37.520;15.106;2023-08-01T03:17:58;100586.75;;;25.44;62.50
54556;BME280;57291;37.520;15.106;2023-08-01T03:20:27;100587.94;;;25.43;62.50
54556;BME280;57291;37.520;15.106;2023-08-01T03:22:54;100587.16;;;25.39;66.39
54556;BME280;57291;37.520;15.106;2023-08-01T03:25:21;100587.56;;;25.34;67.54
54556;BME280;57291;37.520;15.106;2023-08-01T03:27:49;100600.28;;;25.32;70.18
54556;BME280;57291;37.520;15.106;2023-08-01T03:30:16;100604.25;;;25.27;73.15
54556;BME280;57291;37.520;15.106;2023-08-01T03:32:43;100602.69;;;25.19;74.94
54556;BME280;57291;37.520;15.106;2023-08-01T03:35:10;100595.50;;;25.03;74.39
54556;BME280;57291;37.520;15.106;2023-08-01T03:37:38;100601.06;;;24.93;74.58
54556;BME280;57291;37.520;15.106;2023-08-01T03:40:05;100600.25;;;24.85;73.93
54556;BME280;57291;37.520;15.106;2023-08-01T03:42:36;100600.25;;;24.78;71.65
54556;BME280;57291;37.520;15.106;2023-08-01T03:45:04;100597.47;;;24.78;69.64
54556;BME280;57291;37.520;15.106;2023-08-01T03:47:32;100607.81;;;24.81;68.68
54556;BME280;57291;37.520;15.106;2023-08-01T03:50:00;100599.84;;;24.83;67.97
54556;BME280;57291;37.520;15.106;2023-08-01T03:52:27;100599.84;;;24.87;67.84
54556;BME280;57291;37.520;15.106;2023-08-01T03:54:55;100605.41;;;24.90;67.87
54556;BME280;57291;37.520;15.106;2023-08-01T03:57:23;100605.41;;;24.90;69.31
54556;BME280;57291;37.520;15.106;2023-08-01T03:59:50;100604.25;;;24.88;68.81
54556;BME280;57291;37.520;15.106;2023-08-01T04:02:17;100610.59;;;24.88;69.02
54556;BME280;57291;37.520;15.106;2023-08-01T04:04:45;100595.06;;;24.91;67.99
54556;BME280;57291;37.520;15.106;2023-08-01T04:07:12;100589.94;;;24.96;67.78
54556;BME280;57291;37.520;15.106;2023-08-01T04:09:39;100598.69;;;25.02;67.73
54556;BME280;57291;37.520;15.106;2023-08-01T04:12:07;100596.31;;;25.08;67.29
54556;BME280;57291;37.520;15.106;2023-08-01T04:14:34;100602.69;;;25.12;67.13
54556;BME280;57291;37.520;15.106;2023-08-01T04:17:01;100603.47;;;25.12;67.45
54556;BME280;57291;37.520;15.106;2023-08-01T04:19:28;100609.03;;;25.12;67.51
54556;BME280;57291;37.520;15.106;2023-08-01T04:21:55;100607.44;;;25.11;67.78
54556;BME280;57291;37.520;15.106;2023-08-01T04:24:22;100601.88;;;25.15;67.82
54556;BME280;57291;37.520;15.106;2023-08-01T04:26:52;100602.69;;;25.19;67.16
54556;BME280;57291;37.520;15.106;2023-08-01T04:29:19;100602.66;;;25.26;66.42
54556;BME280;57291;37.520;15.106;2023-08-01T04:31:46;100607.03;;;25.34;66.76
54556;BME280;57291;37.520;15.106;2023-08-01T04:34:13;100603.06;;;25.39;66.69
54556;BME280;57291;37.520;15.106;2023-08-01T04:36:41;100610.59;;;25.45;66.74
54556;BME280;57291;37.520;15.106;2023-08-01T04:39:08;100607.41;;;25.50;66.73
54556;BME280;57291;37.520;15.106;2023-08-01T04:41:36;100604.63;;;25.50;66.91
54556;BME280;57291;37.520;15.106;2023-08-01T04:44:03;100610.19;;;25.54;67.46
54556;BME280;57291;37.520;15.106;2023-08-01T04:46:30;100599.06;;;25.58;68.25
54556;BME280;57291;37.520;15.106;2023-08-01T04:48:58;100601.03;;;25.57;68.26
54556;BME280;57291;37.520;15.106;2023-08-01T04:51:25;100604.59;;;25.61;68.76
54556;BME280;57291;37.520;15.106;2023-08-01T04:53:52;100601.00;;;25.68;67.40
54556;BME280;57291;37.520;15.106;2023-08-01T04:56:20;100594.63;;;25.78;66.41
54556;BME280;57291;37.520;15.106;2023-08-01T04:58:47;100601.38;;;25.91;66.07
54556;BME280;57291;37.520;15.106;2023-08-01T05:01:14;100601.72;;;26.04;65.34
54556;BME280;57291;37.520;15.106;2023-08-01T05:03:41;100594.91;;;26.16;65.03
54556;BME280;57291;37.520;15.106;2023-08-01T05:06:08;100604.81;;;26.24;64.38
54556;BME280;57291;37.520;15.106;2023-08-01T05:08:35;100603.16;;;26.37;63.53
54556;BME280;57291;37.520;15.106;2023-08-01T05:11:02;100607.06;;;26.54;63.31
54556;BME280;57291;37.520;15.106;2023-08-01T05:13:30;100601.25;;;26.90;61.39
54556;BME280;57291;37.520;15.106;2023-08-01T05:15:57;100611.56;;;27.45;59.95
54556;BME280;57291;37.520;15.106;2023-08-01T05:18:24;100604.59;;;28.33;57.00
54556;BME280;57291;37.520;15.106;2023-08-01T05:20:51;100608.88;;;28.95;53.06
54556;BME280;57291;37.520;15.106;2023-08-01T05:23:18;100595.56;;;29.06;50.05
54556;BME280;57291;37.520;15.106;2023-08-01T05:25:45;100608.47;;;28.96;50.42
54556;BME280;57291;37.520;15.106;2023-08-01T05:28:12;100605.72;;;28.69;47.66
54556;BME280;57291;37.520;15.106;2023-08-01T05:30:40;100602.78;;;28.49;46.96
54556;BME280;57291;37.520;15.106;2023-08-01T05:33:07;100601.75;;;28.40;46.21
54556;BME280;57291;37.520;15.106;2023-08-01T05:35:34;100596.41;;;28.49;46.69
54556;BME280;57291;37.520;15.106;2023-08-01T05:38:01;100595.28;;;28.97;43.27
54556;BME280;57291;37.520;15.106;2023-08-01T05:40:28;100599.13;;;30.13;40.56
54556;BME280;57291;37.520;15.106;2023-08-01T05:42:55;100592.91;;;32.02;36.47
54556;BME280;57291;37.520;15.106;2023-08-01T05:45:22;100600.56;;;33.64;35.55
54556;BME280;57291;37.520;15.106;2023-08-01T05:47:49;100603.06;;;35.09;32.71
54556;BME280;57291;37.520;15.106;2023-08-01T05:50:17;100594.88;;;36.03;30.48
54556;BME280;57291;37.520;15.106;2023-08-01T05:52:44;100602.44;;;36.48;30.32
54556;BME280;57291;37.520;15.106;2023-08-01T05:55:11;100595.19;;;36.90;29.72
54556;BME280;57291;37.520;15.106;2023-08-01T05:57:38;100600.19;;;36.95;29.08
54556;BME280;57291;37.520;15.106;2023-08-01T06:00:05;100596.00;;;37.14;27.64
54556;BME280;57291;37.520;15.106;2023-08-01T06:02:42;100600.31;;;37.24;28.42
54556;BME280;57291;37.520;15.106;2023-08-01T06:05:09;100604.38;;;37.71;29.40
54556;BME280;57291;37.520;15.106;2023-08-01T06:07:36;100599.84;;;37.26;30.36
54556;BME280;57291;37.520;15.106;2023-08-01T06:10:04;100609.06;;;36.45;34.63
54556;BME280;57291;37.520;15.106;2023-08-01T06:12:31;100600.56;;;36.54;35.23
54556;BME280;57291;37.520;15.106;2023-08-01T06:14:58;100613.59;;;35.82;33.42
54556;BME280;57291;37.520;15.106;2023-08-01T06:17:25;100603.84;;;35.74;32.53
54556;BME280;57291;37.520;15.106;2023-08-01T06:19:52;100613.84;;;36.72;29.76
54556;BME280;57291;37.520;15.106;2023-08-01T06:22:21;100609.53;;;36.53;28.20
54556;BME280;57291;37.520;15.106;2023-08-01T06:24:48;100601.59;;;36.24;28.13
54556;BME280;57291;37.520;15.106;2023-08-01T06:27:15;100605.06;;;36.70;29.77
54556;BME280;57291;37.520;15.106;2023-08-01T06:29:44;100610.03;;;36.75;28.61
54556;BME280;57291;37.520;15.106;2023-08-01T06:32:12;100615.78;;;36.05;33.86
54556;BME280;57291;37.520;15.106;2023-08-01T06:34:39;100608.06;;;34.64;38.23
54556;BME280;57291;37.520;15.106;2023-08-01T06:37:06;100617.56;;;34.89;37.41
54556;BME280;57291;37.520;15.106;2023-08-01T06:39:33;100620.34;;;34.80;38.49
54556;BME280;57291;37.520;15.106;2023-08-01T06:42:00;100627.34;;;34.03;39.48
54556;BME280;57291;37.520;15.106;2023-08-01T06:44:27;100614.53;;;34.43;37.79
54556;BME280;57291;37.520;15.106;2023-08-01T06:46:55;100617.97;;;34.38;35.97
54556;BME280;57291;37.520;15.106;2023-08-01T06:49:22;100615.97;;;34.47;35.65
54556;BME280;57291;37.520;15.106;2023-08-01T06:51:49;100613.56;;;34.37;36.83
54556;BME280;57291;37.520;15.106;2023-08-01T06:54:16;100614.09;;;34.13;36.94
54556;BME280;57291;37.520;15.106;2023-08-01T06:56:43;100612.66;;;33.96;37.38
54556;BME280;57291;37.520;15.106;2023-08-01T06:59:14;100606.97;;;34.30;36.56
54556;BME280;57291;37.520;15.106;2023-08-01T07:01:42;100608.63;;;33.40;38.23
54556;BME280;57291;37.520;15.106;2023-08-01T07:04:11;100615.13;;;33.84;35.74
54556;BME280;57291;37.520;15.106;2023-08-01T07:06:39;100601.16;;;34.56;33.97
54556;BME280;57291;37.520;15.106;2023-08-01T07:09:07;100604.72;;;34.97;32.85
54556;BME280;57291;37.520;15.106;2023-08-01T07:11:34;100608.56;;;35.49;31.68
54556;BME280;57291;37.520;15.106;2023-08-01T07:14:02;100618.31;;;35.66;33.70
54556;BME280;57291;37.520;15.106;2023-08-01T07:16:29;100611.72;;;35.69;32.57
54556;BME280;57291;37.520;15.106;2023-08-01T07:19:00;100617.31;;;35.05;33.27
54556;BME280;57291;37.520;15.106;2023-08-01T07:21:28;100608.03;;;34.24;35.46
54556;BME280;57291;37.520;15.106;2023-08-01T07:23:55;100608.34;;;33.82;36.87
54556;BME280;57291;37.520;15.106;2023-08-01T07:26:24;100616.16;;;33.78;36.98
54556;BME280;57291;37.520;15.106;2023-08-01T07:28:51;100616.41;;;33.49;37.28
54556;BME280;57291;37.520;15.106;2023-08-01T07:31:18;100625.41;;;33.44;37.75
54556;BME280;57291;37.520;15.106;2023-08-01T07:33:46;100618.22;;;33.30;37.66
54556;BME280;57291;37.520;15.106;2023-08-01T07:36:13;100621.16;;;33.26;37.58
54556;BME280;57291;37.520;15.106;2023-08-01T07:38:40;100623.47;;;33.06;37.59
54556;BME280;57291;37.520;15.106;2023-08-01T07:41:07;100621.31;;;32.97;38.52
54556;BME280;57291;37.520;15.106;2023-08-01T07:43:34;100623.22;;;33.13;38.60
54556;BME280;57291;37.520;15.106;2023-08-01T07:46:01;100625.78;;;33.20;37.94
54556;BME280;57291;37.520;15.106;2023-08-01T07:48:28;100619.75;;;33.09;38.30
54556;BME280;57291;37.520;15.106;2023-08-01T07:50:56;100627.19;;;33.03;38.99
54556;BME280;57291;37.520;15.106;2023-08-01T07:53:23;100628.84;;;33.13;38.95
54556;BME280;57291;37.520;15.106;2023-08-01T07:55:52;100625.81;;;32.95;37.52
54556;BME280;57291;37.520;15.106;2023-08-01T07:58:20;100627.78;;;32.98;36.90
54556;BME280;57291;37.520;15.106;2023-08-01T08:00:47;100627.03;;;33.19;37.29
54556;BME280;57291;37.520;15.106;2023-08-01T08:03:14;100626.06;;;32.87;38.08
54556;BME280;57291;37.520;15.106;2023-08-01T08:05:42;100632.22;;;33.33;35.09
54556;BME280;57291;37.520;15.106;2023-08-01T08:08:09;100630.31;;;33.65;35.08
54556;BME280;57291;37.520;15.106;2023-08-01T08:10:36;100631.94;;;33.53;36.55
54556;BME280;57291;37.520;15.106;2023-08-01T08:13:07;100627.31;;;33.47;34.67
54556;BME280;57291;37.520;15.106;2023-08-01T08:15:34;100628.75;;;33.64;34.40
54556;BME280;57291;37.520;15.106;2023-08-01T08:18:02;100635.41;;;33.79;34.78
54556;BME280;57291;37.520;15.106;2023-08-01T08:20:42;100633.72;;;33.60;36.12
54556;BME280;57291;37.520;15.106;2023-08-01T08:23:10;100637.25;;;33.95;35.78
54556;BME280;57291;37.520;15.106;2023-08-01T08:25:37;100630.53;;;33.93;34.52
54556;BME280;57291;37.520;15.106;2023-08-01T08:28:04;100633.06;;;34.00;33.91
54556;BME280;57291;37.520;15.106;2023-08-01T08:30:31;100636.44;;;34.07;33.81
54556;BME280;57291;37.520;15.106;2023-08-01T08:32:59;100641.97;;;33.98;33.44
54556;BME280;57291;37.520;15.106;2023-08-01T08:35:31;100640.28;;;33.79;35.36
54556;BME280;57291;37.520;15.106;2023-08-01T08:37:59;100636.34;;;33.76;35.93
54556;BME280;57291;37.520;15.106;2023-08-01T08:40:27;100641.69;;;33.61;36.67
54556;BME280;57291;37.520;15.106;2023-08-01T08:42:54;100638.66;;;33.91;38.11
54556;BME280;57291;37.520;15.106;2023-08-01T08:45:22;100643.88;;;33.79;38.83
54556;BME280;57291;37.520;15.106;2023-08-01T08:47:55;100637.06;;;33.68;40.45
54556;BME280;57291;37.520;15.106;2023-08-01T08:50:22;100635.84;;;33.56;40.75
54556;BME280;57291;37.520;15.106;2023-08-01T08:52:51;100639.72;;;33.49;40.50
54556;BME280;57291;37.520;15.106;2023-08-01T08:55:19;100645.94;;;33.31;40.05
54556;BME280;57291;37.520;15.106;2023-08-01T08:57:49;100638.28;;;33.32;40.90
54556;BME280;57291;37.520;15.106;2023-08-01T09:00:19;100644.84;;;33.16;42.04
54556;BME280;57291;37.520;15.106;2023-08-01T09:02:47;100638.88;;;32.88;41.48
54556;BME280;57291;37.520;15.106;2023-08-01T09:05:14;100640.56;;;32.73;41.38
54556;BME280;57291;37.520;15.106;2023-08-01T09:07:43;100639.00;;;32.46;41.90
54556;BME280;57291;37.520;15.106;2023-08-01T09:10:16;100647.97;;;32.41;43.07
54556;BME280;57291;37.520;15.106;2023-08-01T09:12:43;100630.41;;;32.37;42.13
54556;BME280;57291;37.520;15.106;2023-08-01T09:15:10;100640.50;;;32.22;43.25
54556;BME280;57291;37.520;15.106;2023-08-01T09:17:50;100640.69;;;32.15;44.39
54556;BME280;57291;37.520;15.106;2023-08-01T09:20:18;100642.50;;;31.80;44.60
54556;BME280;57291;37.520;15.106;2023-08-01T09:22:47;100634.66;;;31.42;45.82
54556;BME280;57291;37.520;15.106;2023-08-01T09:25:14;100632.81;;;31.02;47.14
54556;BME280;57291;37.520;15.106;2023-08-01T09:27:41;100625.19;;;30.34;48.17
54556;BME280;57291;37.520;15.106;2023-08-01T09:30:11;100638.09;;;30.08;49.60
54556;BME280;57291;37.520;15.106;2023-08-01T09:32:40;100621.22;;;29.91;49.91
54556;BME280;57291;37.520;15.106;2023-08-01T09:35:07;100623.66;;;29.89;50.18
54556;BME280;57291;37.520;15.106;2023-08-01T09:37:40;100616.63;;;30.01;49.54
54556;BME280;57291;37.520;15.106;2023-08-01T09:40:10;100618.63;;;30.01;50.47
54556;BME280;57291;37.520;15.106;2023-08-01T09:42:42;100615.47;;;29.99;48.99
54556;BME280;57291;37.520;15.106;2023-08-01T09:45:16;100615.31;;;30.06;51.29
54556;BME280;57291;37.520;15.106;2023-08-01T09:47:44;100615.25;;;30.09;47.39
54556;BME280;57291;37.520;15.106;2023-08-01T09:50:23;100604.69;;;29.97;44.81
54556;BME280;57291;37.520;15.106;2023-08-01T09:52:50;100606.06;;;29.89;48.66
54556;BME280;57291;37.520;15.106;2023-08-01T09:55:32;100608.84;;;29.89;46.73
54556;BME280;57291;37.520;15.106;2023-08-01T09:58:00;100598.06;;;29.67;50.67
54556;BME280;57291;37.520;15.106;2023-08-01T10:00:28;100606.75;;;29.73;51.40
54556;BME280;57291;37.520;15.106;2023-08-01T10:03:00;100595.34;;;29.40;51.18
54556;BME280;57291;37.520;15.106;2023-08-01T10:05:30;100612.44;;;29.46;52.06
54556;BME280;57291;37.520;15.106;2023-08-01T10:07:59;100608.06;;;29.21;53.05
54556;BME280;57291;37.520;15.106;2023-08-01T10:10:28;100605.25;;;28.98;53.81
54556;BME280;57291;37.520;15.106;2023-08-01T10:12:56;100592.31;;;29.08;54.65
54556;BME280;57291;37.520;15.106;2023-08-01T10:15:24;100601.16;;;29.30;54.51
54556;BME280;57291;37.520;15.106;2023-08-01T10:17:52;100591.66;;;29.24;55.90
54556;BME280;57291;37.520;15.106;2023-08-01T10:20:20;100599.00;;;29.37;56.00
54556;BME280;57291;37.520;15.106;2023-08-01T10:22:51;100593.47;;;29.34;55.00
54556;BME280;57291;37.520;15.106;2023-08-01T10:25:20;100593.72;;;29.43;56.15
54556;BME280;57291;37.520;15.106;2023-08-01T10:27:59;100588.03;;;29.47;54.38
54556;BME280;57291;37.520;15.106;2023-08-01T10:30:27;100587.09;;;29.33;54.90
54556;BME280;57291;37.520;15.106;2023-08-01T10:32:56;100597.56;;;29.06;55.10
54556;BME280;57291;37.520;15.106;2023-08-01T10:35:37;100592.44;;;29.01;54.98
54556;BME280;57291;37.520;15.106;2023-08-01T10:38:09;100591.16;;;29.05;55.55
54556;BME280;57291;37.520;15.106;2023-08-01T10:40:41;100575.84;;;29.13;53.82
54556;BME280;57291;37.520;15.106;2023-08-01T10:43:20;100581.19;;;29.04;51.95
54556;BME280;57291;37.520;15.106;2023-08-01T10:45:48;100580.53;;;29.20;55.76
54556;BME280;57291;37.520;15.106;2023-08-01T10:48:16;100571.41;;;29.59;54.31
54556;BME280;57291;37.520;15.106;2023-08-01T10:50:54;100577.53;;;29.94;52.67
54556;BME280;57291;37.520;15.106;2023-08-01T10:53:23;100577.19;;;29.92;50.84
54556;BME280;57291;37.520;15.106;2023-08-01T10:55:52;100581.19;;;29.91;53.09
54556;BME280;57291;37.520;15.106;2023-08-01T10:58:19;100582.56;;;29.83;53.09
54556;BME280;57291;37.520;15.106;2023-08-01T11:00:57;100571.16;;;29.74;53.08
54556;BME280;57291;37.520;15.106;2023-08-01T11:03:38;100577.00;;;29.59;53.49
54556;BME280;57291;37.520;15.106;2023-08-01T11:06:06;100576.63;;;29.57;53.67
54556;BME280;57291;37.520;15.106;2023-08-01T11:08:38;100567.41;;;29.60;53.34
54556;BME280;57291;37.520;15.106;2023-08-01T11:11:06;100575.47;;;29.55;54.54
54556;BME280;57291;37.520;15.106;2023-08-01T11:13:34;100564.78;;;29.50;56.52
54556;BME280;57291;37.520;15.106;2023-08-01T11:16:03;100556.13;;;29.64;54.85
54556;BME280;57291;37.520;15.106;2023-08-01T11:18:44;100565.59;;;29.90;54.90
54556;BME280;57291;37.520;15.106;2023-08-01T11:21:12;100564.03;;;29.89;55.77
54556;BME280;57291;37.520;15.106;2023-08-01T11:23:39;100561.13;;;30.12;55.52
54556;BME280;57291;37.520;15.106;2023-08-01T11:26:10;100560.22;;;30.19;55.91
54556;BME280;57291;37.520;15.106;2023-08-01T11:28:38;100561.91;;;30.33;55.27
54556;BME280;57291;37.520;15.106;2023-08-01T11:31:12;100562.22;;;30.19;56.31
54556;BME280;57291;37.520;15.106;2023-08-01T11:33:39;100554.53;;;30.03;55.67
54556;BME280;57291;37.520;15.106;2023-08-01T11:36:08;100555.00;;;29.81;57.25
54556;BME280;57291;37.520;15.106;2023-08-01T11:38:37;100555.47;;;29.56;57.82
54556;BME280;57291;37.520;15.106;2023-08-01T11:41:05;100560.31;;;29.76;58.67
54556;BME280;57291;37.520;15.106;2023-08-01T11:43:42;100561.53;;;29.95;58.35
54556;BME280;57291;37.520;15.106;2023-08-01T11:46:10;100558.63;;;30.18;57.52
54556;BME280;57291;37.520;15.106;2023-08-01T11:48:37;100556.19;;;30.20;56.09
54556;BME280;57291;37.520;15.106;2023-08-01T11:51:04;100556.56;;;30.02;56.84
54556;BME280;57291;37.520;15.106;2023-08-01T11:53:31;100555.97;;;30.11;55.91
54556;BME280;57291;37.520;15.106;2023-08-01T11:56:06;100551.53;;;29.94;56.49
54556;BME280;57291;37.520;15.106;2023-08-01T11:58:34;100554.81;;;30.08;57.42
54556;BME280;57291;37.520;15.106;2023-08-01T12:01:12;100550.63;;;30.17;56.31
54556;BME280;57291;37.520;15.106;2023-08-01T12:03:50;100542.53;;;30.02;56.80
54556;BME280;57291;37.520;15.106;2023-08-01T12:06:18;100537.81;;;29.99;56.83
54556;BME280;57291;37.520;15.106;2023-08-01T12:08:52;100541.09;;;29.94;55.84
54556;BME280;57291;37.520;15.106;2023-08-01T12:11:27;100534.72;;;29.94;56.99
54556;BME280;57291;37.520;15.106;2023-08-01T12:14:11;100527.94;;;29.51;58.01
54556;BME280;57291;37.520;15.106;2023-08-01T12:16:40;100524.97;;;29.42;58.08
54556;BME280;57291;37.520;15.106;2023-08-01T12:19:08;100526.00;;;29.48;58.20
54556;BME280;57291;37.520;15.106;2023-08-01T12:21:36;100511.06;;;29.35;58.29
54556;BME280;57291;37.520;15.106;2023-08-01T12:24:04;100517.97;;;29.30;58.11
54556;BME280;57291;37.520;15.106;2023-08-01T12:26:31;100510.56;;;29.20;57.03
54556;BME280;57291;37.520;15.106;2023-08-01T12:28:58;100510.97;;;29.18;57.94
54556;BME280;57291;37.520;15.106;2023-08-01T12:31:25;100520.13;;;29.23;58.68
54556;BME280;57291;37.520;15.106;2023-08-01T12:33:52;100517.41;;;29.39;58.10
54556;BME280;57291;37.520;15.106;2023-08-01T12:36:20;100512.84;;;29.68;57.09
54556;BME280;57291;37.520;15.106;2023-08-01T12:38:48;100515.41;;;29.59;56.13
54556;BME280;57291;37.520;15.106;2023-08-01T12:41:15;100511.75;;;29.42;57.18
54556;BME280;57291;37.520;15.106;2023-08-01T12:43:43;100503.84;;;29.37;56.63
54556;BME280;57291;37.520;15.106;2023-08-01T12:46:10;100504.22;;;29.39;56.09